sensor_id;sensor_type;location;lat;lon;timestamp;temperature;humidity
10433;DHT22;5263;48.680;9.004;2023-03-26T00:00:56;6.00;99.90
10433;DHT22;5263;48.680;9.004;2023-03-26T00:03:22;6.10;99.90
10433;DHT22;5263;48.680;9.004;2023-03-26T00:05:47;6.00;99.90
10433;DHT22;5263;48.680;9.004;2023-03-26T00:08:15;6.10;99.90
10433;DHT22;5263;48.680;9.004;2023-03-26T00:10:42;6.10;99.90
10433;DHT22;5263;48.680;9.004;2023-03-26T00:13:08;6.00;99.90
10433;DHT22;5263;48.680;9.004;2023-03-26T00:15:35;6.00;99.90
10433;DHT22;5263;48.680;9.004;2023-03-26T00:18:02;6.20;99.90
10433;DHT22;5263;48.680;9.004;2023-03-26T00:20:29;6.10;99.90
10433;DHT22;5263;48.680;9.004;2023-03-26T00:22:57;6.10;99.90
10433;DHT22;5263;48.680;9.004;2023-03-26T00:25:26;6.30;99.90
10433;DHT22;5263;48.680;9.004;2023-03-26T00:27:51;6.20;99.90
10433;DHT22;5263;48.680;9.004;2023-03-26T00:30:17;6.30;99.90
10433;DHT22;5263;48.680;9.004;2023-03-26T00:32:43;6.30;99.90
10433;DHT22;5263;48.680;9.004;2023-03-26T00:35:09;6.30;99.90
10433;DHT22;5263;48.680;9.004;2023-03-26T00:37:35;6.40;99.90
10433;DHT22;5263;48.680;9.004;2023-03-26T00:40:01;6.40;99.90
10433;DHT22;5263;48.680;9.004;2023-03-26T00:42:31;6.40;99.90
10433;DHT22;5263;48.680;9.004;2023-03-26T00:44:57;6.80;99.90
10433;DHT22;5263;48.680;9.004;2023-03-26T00:47:24;6.30;99.90
10433;DHT22;5263;48.680;9.004;2023-03-26T00:49:49;6.30;99.90
10433;DHT22;5263;48.680;9.004;2023-03-26T00:52:16;6.40;99.90
10433;DHT22;5263;48.680;9.004;2023-03-26T00:54:44;6.30;99.90
10433;DHT22;5263;48.680;9.004;2023-03-26T00:57:10;6.20;99.90
10433;DHT22;5263;48.680;9.004;2023-03-26T00:59:37;6.30;99.90
10433;DHT22;5263;48.680;9.004;2023-03-26T01:02:05;6.20;99.90
10433;DHT22;5263;48.680;9.004;2023-03-26T01:04:32;6.20;99.90
10433;DHT22;5263;48.680;9.004;2023-03-26T01:07:09;6.20;99.90
10433;DHT22;5263;48.680;9.004;2023-03-26T01:09:39;6.30;99.90
10433;DHT22;5263;48.680;9.004;2023-03-26T01:12:12;6.20;99.90
10433;DHT22;5263;48.680;9.004;2023-03-26T01:14:40;6.20;99.90
10433;DHT22;5263;48.680;9.004;2023-03-26T01:17:06;6.10;99.90
10433;DHT22;5263;48.680;9.004;2023-03-26T01:22:15;6.20;99.90
10433;DHT22;5263;48.680;9.004;2023-03-26T01:24:41;6.20;99.90
10433;DHT22;5263;48.680;9.004;2023-03-26T01:32:54;6.30;99.90
10433;DHT22;5263;48.680;9.004;2023-03-26T01:43:57;6.30;99.90
10433;DHT22;5263;48.680;9.004;2023-03-26T01:46:25;6.30;99.90
10433;DHT22;5263;48.680;9.004;2023-03-26T01:48:51;6.40;99.90
10433;DHT22;5263;48.680;9.004;2023-03-26T01:51:32;6.50;99.90
10433;DHT22;5263;48.680;9.004;2023-03-26T01:54:00;6.50;99.90
10433;DHT22;5263;48.680;9.004;2023-03-26T02:05:41;6.40;99.90
10433;DHT22;5263;48.680;9.004;2023-03-26T02:08:27;6.30;99.90
10433;DHT22;5263;48.680;9.004;2023-03-26T02:11:03;6.40;99.90
10433;DHT22;5263;48.680;9.004;2023-03-26T02:13:30;6.30;99.90
10433;DHT22;5263;48.680;9.004;2023-03-26T02:16:01;6.30;99.90
10433;DHT22;5263;48.680;9.004;2023-03-26T02:18:27;6.40;99.90
10433;DHT22;5263;48.680;9.004;2023-03-26T02:21:24;6.30;99.90
10433;DHT22;5263;48.680;9.004;2023-03-26T02:23:52;6.10;99.90
10433;DHT22;5263;48.680;9.004;2023-03-26T02:26:29;6.20;99.90
10433;DHT22;5263;48.680;9.004;2023-03-26T02:28:55;6.10;99.90
10433;DHT22;5263;48.680;9.004;2023-03-26T02:31:21;6.10;99.90
10433;DHT22;5263;48.680;9.004;2023-03-26T02:33:51;6.10;99.90
10433;DHT22;5263;48.680;9.004;2023-03-26T02:36:17;6.20;99.90
10433;DHT22;5263;48.680;9.004;2023-03-26T02:38:49;6.20;99.90
10433;DHT22;5263;48.680;9.004;2023-03-26T02:41:16;6.20;99.90
10433;DHT22;5263;48.680;9.004;2023-03-26T02:43:42;6.20;99.90
10433;DHT22;5263;48.680;9.004;2023-03-26T02:46:07;6.20;99.90
10433;DHT22;5263;48.680;9.004;2023-03-26T02:48:33;6.30;99.90
10433;DHT22;5263;48.680;9.004;2023-03-26T02:51:02;6.20;99.90
10433;DHT22;5263;48.680;9.004;2023-03-26T02:53:28;6.20;99.90
10433;DHT22;5263;48.680;9.004;2023-03-26T02:55:57;6.20;99.90
10433;DHT22;5263;48.680;9.004;2023-03-26T02:58:23;6.10;99.90
10433;DHT22;5263;48.680;9.004;2023-03-26T03:00:53;6.10;99.90
10433;DHT22;5263;48.680;9.004;2023-03-26T03:03:24;6.20;99.90
10433;DHT22;5263;48.680;9.004;2023-03-26T03:05:54;6.00;99.90
10433;DHT22;5263;48.680;9.004;2023-03-26T03:08:22;6.00;99.90
10433;DHT22;5263;48.680;9.004;2023-03-26T03:11:02;6.10;99.90
10433;DHT22;5263;48.680;9.004;2023-03-26T03:13:28;6.20;99.90
10433;DHT22;5263;48.680;9.004;2023-03-26T03:15:53;6.20;99.90
10433;DHT22;5263;48.680;9.004;2023-03-26T03:18:19;6.30;99.90
10433;DHT22;5263;48.680;9.004;2023-03-26T03:20:45;6.20;99.90
10433;DHT22;5263;48.680;9.004;2023-03-26T03:23:11;6.30;99.90
10433;DHT22;5263;48.680;9.004;2023-03-26T03:25:37;6.40;99.90
10433;DHT22;5263;48.680;9.004;2023-03-26T03:28:03;6.50;99.90
10433;DHT22;5263;48.680;9.004;2023-03-26T03:30:29;6.50;99.90
10433;DHT22;5263;48.680;9.004;2023-03-26T03:32:55;6.50;99.90
10433;DHT22;5263;48.680;9.004;2023-03-26T03:35:23;6.40;99.90
10433;DHT22;5263;48.680;9.004;2023-03-26T03:37:49;6.50;99.90
10433;DHT22;5263;48.680;9.004;2023-03-26T03:40:15;6.50;99.90
10433;DHT22;5263;48.680;9.004;2023-03-26T03:42:41;6.60;99.90
10433;DHT22;5263;48.680;9.004;2023-03-26T03:45:07;6.60;99.90
10433;DHT22;5263;48.680;9.004;2023-03-26T03:47:33;6.60;99.90
10433;DHT22;5263;48.680;9.004;2023-03-26T03:49:58;6.60;99.90
10433;DHT22;5263;48.680;9.004;2023-03-26T03:52:26;6.50;99.90
10433;DHT22;5263;48.680;9.004;2023-03-26T03:54:53;6.30;99.90
10433;DHT22;5263;48.680;9.004;2023-03-26T03:57:20;6.30;99.90
10433;DHT22;5263;48.680;9.004;2023-03-26T03:59:47;6.50;99.90
10433;DHT22;5263;48.680;9.004;2023-03-26T04:02:12;6.40;99.90
10433;DHT22;5263;48.680;9.004;2023-03-26T04:04:38;6.50;99.90
10433;DHT22;5263;48.680;9.004;2023-03-26T04:07:04;6.60;99.90
10433;DHT22;5263;48.680;9.004;2023-03-26T04:09:30;6.60;99.90
10433;DHT22;5263;48.680;9.004;2023-03-26T04:11:56;6.50;99.90
10433;DHT22;5263;48.680;9.004;2023-03-26T04:14:21;6.50;99.90
10433;DHT22;5263;48.680;9.004;2023-03-26T04:16:47;6.50;99.90
10433;DHT22;5263;48.680;9.004;2023-03-26T04:19:14;6.90;99.90
10433;DHT22;5263;48.680;9.004;2023-03-26T04:21:40;6.60;99.90
10433;DHT22;5263;48.680;9.004;2023-03-26T04:24:08;6.60;99.90
10433;DHT22;5263;48.680;9.004;2023-03-26T04:26:34;6.50;99.90
10433;DHT22;5263;48.680;9.004;2023-03-26T04:29:02;6.40;99.90
10433;DHT22;5263;48.680;9.004;2023-03-26T04:31:28;6.30;99.90
10433;DHT22;5263;48.680;9.004;2023-03-26T04:33:58;6.30;99.90
10433;DHT22;5263;48.680;9.004;2023-03-26T04:36:28;6.40;99.90
10433;DHT22;5263;48.680;9.004;2023-03-26T04:38:55;6.00;99.90
10433;DHT22;5263;48.680;9.004;2023-03-26T04:41:23;6.20;99.90
10433;DHT22;5263;48.680;9.004;2023-03-26T04:43:51;6.10;99.90
10433;DHT22;5263;48.680;9.004;2023-03-26T04:46:18;6.30;99.90
10433;DHT22;5263;48.680;9.004;2023-03-26T04:48:50;6.40;99.90
10433;DHT22;5263;48.680;9.004;2023-03-26T04:51:17;6.50;99.90
10433;DHT22;5263;48.680;9.004;2023-03-26T04:53:57;6.50;99.90
10433;DHT22;5263;48.680;9.004;2023-03-26T04:58:59;6.40;99.90
10433;DHT22;5263;48.680;9.004;2023-03-26T05:01:25;6.50;99.90
10433;DHT22;5263;48.680;9.004;2023-03-26T05:03:53;6.30;99.90
10433;DHT22;5263;48.680;9.004;2023-03-26T05:06:19;6.40;99.90
10433;DHT22;5263;48.680;9.004;2023-03-26T05:08:46;6.50;99.90
10433;DHT22;5263;48.680;9.004;2023-03-26T05:11:12;6.50;99.90
10433;DHT22;5263;48.680;9.004;2023-03-26T05:13:38;6.40;99.90
10433;DHT22;5263;48.680;9.004;2023-03-26T05:16:04;6.30;99.90
10433;DHT22;5263;48.680;9.004;2023-03-26T05:18:29;6.40;99.90
10433;DHT22;5263;48.680;9.004;2023-03-26T05:20:56;6.20;99.90
10433;DHT22;5263;48.680;9.004;2023-03-26T05:23:22;6.10;99.90
10433;DHT22;5263;48.680;9.004;2023-03-26T05:25:48;6.20;99.90
10433;DHT22;5263;48.680;9.004;2023-03-26T05:28:13;6.20;99.90
10433;DHT22;5263;48.680;9.004;2023-03-26T05:30:41;6.20;99.90
10433;DHT22;5263;48.680;9.004;2023-03-26T05:33:07;6.30;99.90
10433;DHT22;5263;48.680;9.004;2023-03-26T05:35:33;6.30;99.90
10433;DHT22;5263;48.680;9.004;2023-03-26T05:37:58;6.40;99.90
10433;DHT22;5263;48.680;9.004;2023-03-26T05:40:24;6.40;99.90
10433;DHT22;5263;48.680;9.004;2023-03-26T05:42:50;6.40;99.90
10433;DHT22;5263;48.680;9.004;2023-03-26T05:45:16;6.50;99.90
10433;DHT22;5263;48.680;9.004;2023-03-26T05:47:42;6.50;99.90
10433;DHT22;5263;48.680;9.004;2023-03-26T05:50:08;6.50;99.90
10433;DHT22;5263;48.680;9.004;2023-03-26T05:52:34;6.50;99.90
10433;DHT22;5263;48.680;9.004;2023-03-26T05:55:00;6.60;99.90
10433;DHT22;5263;48.680;9.004;2023-03-26T05:57:28;6.60;99.90
10433;DHT22;5263;48.680;9.004;2023-03-26T05:59:54;6.70;99.90
10433;DHT22;5263;48.680;9.004;2023-03-26T06:02:22;6.60;99.90
10433;DHT22;5263;48.680;9.004;2023-03-26T06:04:48;6.60;99.90
10433;DHT22;5263;48.680;9.004;2023-03-26T06:07:15;6.70;99.90
10433;DHT22;5263;48.680;9.004;2023-03-26T06:09:42;6.70;99.90
10433;DHT22;5263;48.680;9.004;2023-03-26T06:12:09;6.80;99.90
10433;DHT22;5263;48.680;9.004;2023-03-26T06:14:35;6.80;99.90
10433;DHT22;5263;48.680;9.004;2023-03-26T06:17:01;6.90;99.90
10433;DHT22;5263;48.680;9.004;2023-03-26T06:19:26;6.80;99.90
10433;DHT22;5263;48.680;9.004;2023-03-26T06:21:52;7.00;99.90
10433;DHT22;5263;48.680;9.004;2023-03-26T06:24:18;6.90;99.90
10433;DHT22;5263;48.680;9.004;2023-03-26T06:26:45;7.00;99.90
10433;DHT22;5263;48.680;9.004;2023-03-26T06:29:12;7.00;99.90
10433;DHT22;5263;48.680;9.004;2023-03-26T06:31:39;6.90;99.90
10433;DHT22;5263;48.680;9.004;2023-03-26T06:34:05;7.00;99.90
10433;DHT22;5263;48.680;9.004;2023-03-26T06:36:31;7.20;99.90
10433;DHT22;5263;48.680;9.004;2023-03-26T06:38:56;7.20;99.90
10433;DHT22;5263;48.680;9.004;2023-03-26T06:41:22;7.20;99.90
10433;DHT22;5263;48.680;9.004;2023-03-26T06:43:47;7.10;99.90
10433;DHT22;5263;48.680;9.004;2023-03-26T06:46:14;7.10;99.90
10433;DHT22;5263;48.680;9.004;2023-03-26T06:48:39;6.90;99.90
10433;DHT22;5263;48.680;9.004;2023-03-26T06:51:07;6.90;99.90
10433;DHT22;5263;48.680;9.004;2023-03-26T06:53:32;6.90;99.90
10433;DHT22;5263;48.680;9.004;2023-03-26T06:55:58;6.90;99.90
10433;DHT22;5263;48.680;9.004;2023-03-26T06:58:24;6.90;99.90
10433;DHT22;5263;48.680;9.004;2023-03-26T07:00:52;7.00;99.90
10433;DHT22;5263;48.680;9.004;2023-03-26T07:03:18;7.00;99.90
10433;DHT22;5263;48.680;9.004;2023-03-26T07:05:44;7.00;99.90
10433;DHT22;5263;48.680;9.004;2023-03-26T07:08:09;7.00;99.90
10433;DHT22;5263;48.680;9.004;2023-03-26T07:10:35;6.80;99.90
10433;DHT22;5263;48.680;9.004;2023-03-26T07:13:00;6.70;99.90
10433;DHT22;5263;48.680;9.004;2023-03-26T07:15:27;6.90;99.90
10433;DHT22;5263;48.680;9.004;2023-03-26T07:17:53;6.90;99.90
10433;DHT22;5263;48.680;9.004;2023-03-26T07:20:18;6.90;99.90
10433;DHT22;5263;48.680;9.004;2023-03-26T07:22:45;6.90;99.90
10433;DHT22;5263;48.680;9.004;2023-03-26T07:25:12;6.90;99.90
10433;DHT22;5263;48.680;9.004;2023-03-26T07:30:52;6.60;99.90
10433;DHT22;5263;48.680;9.004;2023-03-26T07:36:03;6.60;99.90
10433;DHT22;5263;48.680;9.004;2023-03-26T07:41:48;6.50;99.90
10433;DHT22;5263;48.680;9.004;2023-03-26T07:44:30;6.40;99.90
10433;DHT22;5263;48.680;9.004;2023-03-26T07:46:59;6.50;99.90
10433;DHT22;5263;48.680;9.004;2023-03-26T07:49:26;6.30;99.90
10433;DHT22;5263;48.680;9.004;2023-03-26T07:51:54;6.50;99.90
10433;DHT22;5263;48.680;9.004;2023-03-26T07:54:19;6.30;99.90
10433;DHT22;5263;48.680;9.004;2023-03-26T07:56:58;6.30;99.90
10433;DHT22;5263;48.680;9.004;2023-03-26T07:59:29;6.50;99.90
10433;DHT22;5263;48.680;9.004;2023-03-26T08:02:13;6.50;99.90
10433;DHT22;5263;48.680;9.004;2023-03-26T08:08:01;6.30;99.90
10433;DHT22;5263;48.680;9.004;2023-03-26T08:10:42;6.40;99.90
10433;DHT22;5263;48.680;9.004;2023-03-26T08:13:25;6.40;99.90
10433;DHT22;5263;48.680;9.004;2023-03-26T08:16:18;6.50;99.90
10433;DHT22;5263;48.680;9.004;2023-03-26T08:19:02;6.50;99.90
10433;DHT22;5263;48.680;9.004;2023-03-26T08:21:52;6.50;99.90
10433;DHT22;5263;48.680;9.004;2023-03-26T08:24:42;6.60;99.90
10433;DHT22;5263;48.680;9.004;2023-03-26T08:27:15;6.40;99.90
10433;DHT22;5263;48.680;9.004;2023-03-26T08:32:19;6.30;99.90
10433;DHT22;5263;48.680;9.004;2023-03-26T08:34:45;6.30;99.90
10433;DHT22;5263;48.680;9.004;2023-03-26T08:37:10;6.50;99.90
10433;DHT22;5263;48.680;9.004;2023-03-26T08:39:37;6.70;99.90
10433;DHT22;5263;48.680;9.004;2023-03-26T08:45:10;6.90;99.90
10433;DHT22;5263;48.680;9.004;2023-03-26T09:35:49;9.50;99.90
10433;DHT22;5263;48.680;9.004;2023-03-26T09:38:32;9.70;99.90
10433;DHT22;5263;48.680;9.004;2023-03-26T09:41:17;9.90;99.90
10433;DHT22;5263;48.680;9.004;2023-03-26T09:46:27;10.60;99.90
10433;DHT22;5263;48.680;9.004;2023-03-26T09:49:01;10.00;99.90
10433;DHT22;5263;48.680;9.004;2023-03-26T09:52:02;10.10;99.90
10433;DHT22;5263;48.680;9.004;2023-03-26T09:57:12;10.80;99.90
10433;DHT22;5263;48.680;9.004;2023-03-26T10:07:48;10.00;99.90
10433;DHT22;5263;48.680;9.004;2023-03-26T10:10:37;11.10;99.90
10433;DHT22;5263;48.680;9.004;2023-03-26T10:18:58;11.10;99.90
10433;DHT22;5263;48.680;9.004;2023-03-26T10:21:46;12.30;99.90
10433;DHT22;5263;48.680;9.004;2023-03-26T10:29:57;10.80;99.90
10433;DHT22;5263;48.680;9.004;2023-03-26T10:35:30;11.50;99.90
10433;DHT22;5263;48.680;9.004;2023-03-26T10:41:24;11.80;99.90
10433;DHT22;5263;48.680;9.004;2023-03-26T10:50:18;12.40;99.90
10433;DHT22;5263;48.680;9.004;2023-03-26T10:53:26;13.80;99.90
10433;DHT22;5263;48.680;9.004;2023-03-26T10:56:24;12.50;99.90
10433;DHT22;5263;48.680;9.004;2023-03-26T10:58:53;12.00;99.90
10433;DHT22;5263;48.680;9.004;2023-03-26T11:09:53;11.80;99.90
10433;DHT22;5263;48.680;9.004;2023-03-26T11:12:32;12.60;99.90
10433;DHT22;5263;48.680;9.004;2023-03-26T11:21:00;16.40;99.90
10433;DHT22;5263;48.680;9.004;2023-03-26T11:23:34;16.80;99.90
10433;DHT22;5263;48.680;9.004;2023-03-26T11:31:45;15.80;99.90
10433;DHT22;5263;48.680;9.004;2023-03-26T11:34:16;16.20;99.90
10433;DHT22;5263;48.680;9.004;2023-03-26T11:36:50;16.30;99.90
10433;DHT22;5263;48.680;9.004;2023-03-26T11:39:25;17.00;99.90
10433;DHT22;5263;48.680;9.004;2023-03-26T11:41:58;14.70;99.90
10433;DHT22;5263;48.680;9.004;2023-03-26T11:44:35;16.80;99.90
10433;DHT22;5263;48.680;9.004;2023-03-26T11:47:06;16.30;99.90
10433;DHT22;5263;48.680;9.004;2023-03-26T11:49:35;16.70;98.50
10433;DHT22;5263;48.680;9.004;2023-03-26T11:52:01;17.20;97.90
10433;DHT22;5263;48.680;9.004;2023-03-26T11:54:28;17.50;98.50
10433;DHT22;5263;48.680;9.004;2023-03-26T11:57:01;16.50;98.70
10433;DHT22;5263;48.680;9.004;2023-03-26T12:04:35;16.70;97.10
10433;DHT22;5263;48.680;9.004;2023-03-26T12:12:19;16.80;93.10
10433;DHT22;5263;48.680;9.004;2023-03-26T12:14:46;17.90;92.20
10433;DHT22;5263;48.680;9.004;2023-03-26T12:17:35;17.50;88.60
10433;DHT22;5263;48.680;9.004;2023-03-26T12:22:47;14.00;94.40
10433;DHT22;5263;48.680;9.004;2023-03-26T12:25:21;12.70;96.00
10433;DHT22;5263;48.680;9.004;2023-03-26T12:27:48;14.00;96.70
10433;DHT22;5263;48.680;9.004;2023-03-26T12:30:25;15.40;95.00
10433;DHT22;5263;48.680;9.004;2023-03-26T12:33:03;16.60;94.20
10433;DHT22;5263;48.680;9.004;2023-03-26T12:35:32;16.60;91.90
10433;DHT22;5263;48.680;9.004;2023-03-26T12:40:46;16.30;94.20
10433;DHT22;5263;48.680;9.004;2023-03-26T12:43:30;15.70;93.40
10433;DHT22;5263;48.680;9.004;2023-03-26T12:46:00;15.90;93.70
10433;DHT22;5263;48.680;9.004;2023-03-26T12:48:25;16.90;91.30
10433;DHT22;5263;48.680;9.004;2023-03-26T12:56:16;19.40;84.80
10433;DHT22;5263;48.680;9.004;2023-03-26T12:59:13;17.60;85.30
10433;DHT22;5263;48.680;9.004;2023-03-26T13:09:43;17.60;77.60
10433;DHT22;5263;48.680;9.004;2023-03-26T13:15:04;18.10;78.50
10433;DHT22;5263;48.680;9.004;2023-03-26T13:36:20;13.60;85.70
10433;DHT22;5263;48.680;9.004;2023-03-26T13:42:08;13.10;88.90
10433;DHT22;5263;48.680;9.004;2023-03-26T13:47:15;13.40;86.20
10433;DHT22;5263;48.680;9.004;2023-03-26T13:49:56;13.10;87.70
10433;DHT22;5263;48.680;9.004;2023-03-26T13:52:28;13.10;90.50
10433;DHT22;5263;48.680;9.004;2023-03-26T13:55:17;12.80;90.10
10433;DHT22;5263;48.680;9.004;2023-03-26T13:57:52;12.40;91.00
10433;DHT22;5263;48.680;9.004;2023-03-26T14:05:54;11.90;93.20
10433;DHT22;5263;48.680;9.004;2023-03-26T14:08:33;11.70;93.70
10433;DHT22;5263;48.680;9.004;2023-03-26T14:11:11;10.80;99.90
10433;DHT22;5263;48.680;9.004;2023-03-26T14:13:48;9.60;99.90
10433;DHT22;5263;48.680;9.004;2023-03-26T14:16:22;8.80;99.90
10433;DHT22;5263;48.680;9.004;2023-03-26T14:18:55;8.40;99.90
10433;DHT22;5263;48.680;9.004;2023-03-26T14:35:34;7.80;99.90
10433;DHT22;5263;48.680;9.004;2023-03-26T14:40:55;8.00;99.90
10433;DHT22;5263;48.680;9.004;2023-03-26T14:43:51;8.10;99.90
10433;DHT22;5263;48.680;9.004;2023-03-26T14:54:57;8.20;99.90
10433;DHT22;5263;48.680;9.004;2023-03-26T15:09:48;8.00;99.90
10433;DHT22;5263;48.680;9.004;2023-03-26T15:18:20;7.50;99.90
10433;DHT22;5263;48.680;9.004;2023-03-26T15:24:02;7.20;99.90
10433;DHT22;5263;48.680;9.004;2023-03-26T15:41:00;6.10;99.90
10433;DHT22;5263;48.680;9.004;2023-03-26T15:49:22;5.70;99.90
10433;DHT22;5263;48.680;9.004;2023-03-26T15:57:45;5.70;99.90
10433;DHT22;5263;48.680;9.004;2023-03-26T16:00:23;5.70;99.90
10433;DHT22;5263;48.680;9.004;2023-03-26T16:05:37;5.70;99.90
10433;DHT22;5263;48.680;9.004;2023-03-26T16:08:11;5.80;99.90
10433;DHT22;5263;48.680;9.004;2023-03-26T16:10:54;6.00;99.90
10433;DHT22;5263;48.680;9.004;2023-03-26T16:18:40;6.10;99.90
10433;DHT22;5263;48.680;9.004;2023-03-26T16:28:36;6.20;
10433;DHT22;5263;48.680;9.004;2023-03-26T16:36:51;6.00;99.90
10433;DHT22;5263;48.680;9.004;2023-03-26T16:39:37;6.00;99.90
10433;DHT22;5263;48.680;9.004;2023-03-26T16:42:25;6.00;99.90
10433;DHT22;5263;48.680;9.004;2023-03-26T16:48:20;6.00;99.90
10433;DHT22;5263;48.680;9.004;2023-03-26T16:51:07;6.10;99.90
10433;DHT22;5263;48.680;9.004;2023-03-26T16:53:59;6.00;99.90
10433;DHT22;5263;48.680;9.004;2023-03-26T16:56:53;6.00;99.90
10433;DHT22;5263;48.680;9.004;2023-03-26T17:05:19;6.20;99.90
10433;DHT22;5263;48.680;9.004;2023-03-26T17:08:13;6.20;99.90
10433;DHT22;5263;48.680;9.004;2023-03-26T17:10:45;6.10;99.90
10433;DHT22;5263;48.680;9.004;2023-03-26T17:16:44;6.10;99.90
10433;DHT22;5263;48.680;9.004;2023-03-26T17:27:42;6.10;99.90
10433;DHT22;5263;48.680;9.004;2023-03-26T17:33:09;6.00;99.90
10433;DHT22;5263;48.680;9.004;2023-03-26T17:35:46;6.00;99.90
10433;DHT22;5263;48.680;9.004;2023-03-26T17:40:57;5.80;99.90
10433;DHT22;5263;48.680;9.004;2023-03-26T17:46:50;5.70;99.90
10433;DHT22;5263;48.680;9.004;2023-03-26T17:51:51;5.60;99.90
10433;DHT22;5263;48.680;9.004;2023-03-26T17:54:23;5.50;99.90
10433;DHT22;5263;48.680;9.004;2023-03-26T17:56:52;5.40;99.90
10433;DHT22;5263;48.680;9.004;2023-03-26T17:59:22;5.30;99.90
10433;DHT22;5263;48.680;9.004;2023-03-26T18:02:34;5.30;99.90
10433;DHT22;5263;48.680;9.004;2023-03-26T18:04:42;5.30;99.90
10433;DHT22;5263;48.680;9.004;2023-03-26T18:13:37;5.40;99.90
10433;DHT22;5263;48.680;9.004;2023-03-26T18:16:16;5.40;99.90
